< < Back
Terminal Aerodrome Forecast


Current Version              Previous Versions:   1  2  3  4  5  6  7  8  9  

Terminal Aerodrome Forecast

000
FTUS42 KTAE 031120
TAFDHN
TAF
KDHN 031120Z 0312/0412 VRB03KT P6SM SKC
     FM031500 30007KT P6SM SCT040=

Latest METAR

364
SAUS70 KWBC 031500 RRL
MTRDHN
METAR KDHN 031453Z 09003KT 10SM CLR 31/23 A2995 RMK AO2 SLP133 T03060233
50005


USA.gov is the U.S. government's official web portal to all federal, state and local government web resources and services.